Portada
METAR-TAF:

METAR-TAF

Aeropuertos :

Kaolack, Senegal

latitud: 14-08N, longitud: 016-04W, altitud: 6 m

Observación

El informe se hizo hace 3 horas y 11 minutos, a las 12:00 UTC
Viento 6 kt del norte
Temperatura 30°C
Humedad 70%
Presión 1013 hPa
Visibilidad 10 km o más
Cielo nuboso a una altura de 2000 ft

METAR: GOOK 141200Z 36006KT 9999 BKN020 30/24 Q1013

Hora: 15:11 (15:11 UTC)


TAF: falta

Observaciones y pronósticos meteorológicos de más de 4000 aeropuertos (mensajes METAR y TAF).

Los puntos amarillos y rojos representan las estaciones disponibles.

Ponga el ratón en el punto deseado para ver el nombre de la estación.

Haga clic para ver las observaciones y los pronósticos meteorológicos.

Para cambiar el mapa : haga clic en los botones verdes con una cruz de color negro para hacer un zoom, en el botón verde con un guión para alejar o en las flechas verdes para mapas adyacentes.


METAR-TAF: